createdAt,value
2019-02-24T00:01:33.597Z,0.60
2019-02-24T00:04:10.097Z,0.60
2019-02-24T00:06:40.529Z,0.60
2019-02-24T00:09:10.968Z,0.60
2019-02-24T00:11:47.867Z,0.70
2019-02-24T00:14:18.240Z,0.60
2019-02-24T00:16:48.681Z,0.70
2019-02-24T00:19:25.806Z,0.62
2019-02-24T00:21:56.238Z,0.80
2019-02-24T00:24:26.667Z,0.70
2019-02-24T00:27:03.489Z,0.80
2019-02-24T00:29:33.920Z,0.53
2019-02-24T00:32:04.301Z,0.60
2019-02-24T00:34:41.224Z,0.70
2019-02-24T00:37:11.691Z,0.50
2019-02-24T00:39:55.562Z,0.70
2019-02-24T00:42:32.416Z,0.70
2019-02-24T00:45:10.047Z,0.68
2019-02-24T00:47:40.455Z,0.60
2019-02-24T00:50:11.317Z,0.70
2019-02-24T00:52:48.080Z,0.53
2019-02-24T00:55:25.537Z,0.50
2019-02-24T00:58:02.458Z,0.60
2019-02-24T01:00:32.827Z,0.65
2019-02-24T01:03:03.276Z,0.60
2019-02-24T01:05:40.179Z,0.57
2019-02-24T01:08:10.921Z,0.55
2019-02-24T01:10:41.355Z,0.60
2019-02-24T01:13:19.932Z,0.50
2019-02-24T01:15:50.301Z,0.70
2019-02-24T01:18:20.787Z,0.60
2019-02-24T01:20:58.063Z,0.60
2019-02-24T01:23:28.420Z,0.50
2019-02-24T01:25:58.861Z,0.90
2019-02-24T01:28:35.854Z,0.50
2019-02-24T01:31:06.221Z,0.53
2019-02-24T01:33:36.785Z,0.70
2019-02-24T01:36:13.636Z,0.53
2019-02-24T01:38:44.001Z,0.70
2019-02-24T01:41:28.366Z,0.70
2019-02-24T01:44:05.337Z,0.57
2019-02-24T01:46:42.763Z,0.60
2019-02-24T01:49:13.199Z,0.50
2019-02-24T01:51:43.657Z,0.68
2019-02-24T01:54:20.825Z,0.50
2019-02-24T01:56:58.332Z,0.70
2019-02-24T01:59:35.879Z,0.65
2019-02-24T02:02:06.244Z,0.60
2019-02-24T02:04:36.621Z,0.60
2019-02-24T02:07:14.011Z,0.57
2019-02-24T02:09:44.470Z,0.57
2019-02-24T02:12:14.961Z,0.42
2019-02-24T02:14:51.792Z,0.60
2019-02-24T02:17:22.164Z,0.45
2019-02-24T02:19:52.591Z,0.80
2019-02-24T02:22:29.367Z,0.70
2019-02-24T02:24:59.714Z,0.50
2019-02-24T02:27:30.167Z,0.50
2019-02-24T02:30:07.470Z,0.50
2019-02-24T02:32:37.836Z,0.60
2019-02-24T02:35:09.400Z,0.75
2019-02-24T02:37:46.589Z,0.55
2019-02-24T02:40:23.450Z,0.60
2019-02-24T02:43:06.945Z,0.50
2019-02-24T02:45:37.401Z,0.60
2019-02-24T02:48:07.757Z,0.62
2019-02-24T02:50:46.247Z,0.57
2019-02-24T02:53:16.784Z,0.60
2019-02-24T02:55:47.225Z,0.60
2019-02-24T02:58:30.351Z,0.70
2019-02-24T03:01:00.806Z,0.70
2019-02-24T03:03:31.237Z,0.50
2019-02-24T03:06:12.638Z,0.57
2019-02-24T03:08:50.038Z,0.70
2019-02-24T03:11:27.972Z,0.55
2019-02-24T03:13:58.358Z,0.68
2019-02-24T03:16:29.454Z,0.53
2019-02-24T03:19:06.379Z,0.60
2019-02-24T03:21:37.085Z,0.50
2019-02-24T03:24:07.457Z,0.60
2019-02-24T03:26:44.438Z,0.80
2019-02-24T03:29:15.235Z,0.55
2019-02-24T03:31:45.703Z,0.50
2019-02-24T03:34:22.232Z,0.55
2019-02-24T03:36:52.932Z,0.62
2019-02-24T03:39:23.328Z,0.70
2019-02-24T03:42:00.582Z,0.60
2019-02-24T03:44:37.478Z,0.70
2019-02-24T03:47:14.163Z,0.72
2019-02-24T03:49:44.617Z,0.50
2019-02-24T03:52:15.075Z,0.78
2019-02-24T03:54:52.661Z,0.53
2019-02-24T03:57:24.239Z,0.50
2019-02-24T04:00:07.950Z,0.70
2019-02-24T04:02:38.340Z,0.70
2019-02-24T04:05:08.805Z,0.60
2019-02-24T04:07:46.162Z,0.70
2019-02-24T04:10:16.494Z,0.68
2019-02-24T04:12:47.759Z,0.70
2019-02-24T04:15:25.369Z,0.60
2019-02-24T04:17:55.738Z,0.72
2019-02-24T04:20:26.132Z,0.60
2019-02-24T04:23:03.349Z,0.85
2019-02-24T04:25:33.826Z,0.57
2019-02-24T04:28:04.181Z,0.60
2019-02-24T04:30:42.664Z,0.57
2019-02-24T04:33:13.025Z,0.53
2019-02-24T04:35:43.684Z,0.65
2019-02-24T04:38:20.958Z,0.55
2019-02-24T04:40:51.413Z,0.68
2019-02-24T04:43:34.144Z,0.80
2019-02-24T04:46:11.603Z,0.90
2019-02-24T04:48:49.017Z,0.62
2019-02-24T04:51:19.467Z,0.80
2019-02-24T04:53:49.908Z,0.90
2019-02-24T04:56:27.282Z,0.80
2019-02-24T04:58:57.732Z,0.85
2019-02-24T05:01:41.116Z,1.00
2019-02-24T05:04:11.468Z,0.80
2019-02-24T05:06:41.844Z,0.80
2019-02-24T05:09:18.450Z,0.90
2019-02-24T05:11:48.807Z,0.80
2019-02-24T05:14:19.274Z,0.85
2019-02-24T05:16:56.242Z,0.90
2019-02-24T05:19:26.673Z,0.70
2019-02-24T05:21:57.191Z,1.00
2019-02-24T05:24:33.956Z,0.80
2019-02-24T05:27:04.396Z,1.00
2019-02-24T05:29:44.761Z,0.90
2019-02-24T05:32:14.484Z,1.30
2019-02-24T05:34:44.836Z,1.77
2019-02-24T05:37:15.221Z,2.27
2019-02-24T05:39:52.746Z,2.15
2019-02-24T05:42:23.782Z,1.90
2019-02-24T05:45:08.342Z,1.95
2019-02-24T05:47:38.707Z,1.92
2019-02-24T05:53:09.914Z,2.45
2019-02-24T05:55:40.369Z,2.15
2019-02-24T05:58:10.842Z,2.50
2019-02-24T06:00:47.765Z,2.52
2019-02-24T06:03:24.519Z,2.52
2019-02-24T06:06:01.957Z,2.58
2019-02-24T06:08:32.329Z,2.37
2019-02-24T06:11:02.901Z,2.40
2019-02-24T06:13:39.795Z,2.20
2019-02-24T06:16:10.157Z,2.35
2019-02-24T06:18:40.671Z,2.70
2019-02-24T06:21:17.960Z,2.85
2019-02-24T06:23:48.350Z,2.80
2019-02-24T06:26:18.771Z,2.25
2019-02-24T06:28:56.238Z,2.30
2019-02-24T06:31:26.897Z,2.70
2019-02-24T06:33:57.628Z,2.60
2019-02-24T06:36:34.814Z,2.55
2019-02-24T06:39:05.249Z,2.52
2019-02-24T06:41:35.669Z,2.70
2019-02-24T06:44:12.666Z,2.15
2019-02-24T06:46:43.394Z,2.40
2019-02-24T06:49:13.744Z,2.47
2019-02-24T06:51:50.876Z,2.25
2019-02-24T06:54:28.061Z,2.10
2019-02-24T06:57:05.349Z,2.45
2019-02-24T06:59:35.792Z,2.15
2019-02-24T07:02:06.226Z,2.30
2019-02-24T07:04:50.419Z,2.30
2019-02-24T07:07:20.775Z,2.30
2019-02-24T07:09:51.253Z,2.30
2019-02-24T07:12:28.605Z,2.30
2019-02-24T07:14:58.970Z,2.08
2019-02-24T07:17:29.412Z,2.30
2019-02-24T07:20:06.325Z,2.08
2019-02-24T07:22:36.740Z,2.10
2019-02-24T07:25:07.814Z,2.33
2019-02-24T07:27:44.731Z,2.33
2019-02-24T07:30:23.093Z,2.55
2019-02-24T07:32:47.147Z,2.22
2019-02-24T07:35:24.442Z,2.33
2019-02-24T07:37:54.856Z,2.27
2019-02-24T07:40:25.278Z,2.25
2019-02-24T07:43:02.048Z,2.12
2019-02-24T07:45:32.432Z,2.30
2019-02-24T07:48:02.928Z,2.05
2019-02-24T07:50:39.802Z,2.20
2019-02-24T07:53:17.059Z,2.00
2019-02-24T07:56:07.389Z,2.17
2019-02-24T07:58:37.792Z,2.00
2019-02-24T08:01:08.258Z,2.08
2019-02-24T08:03:45.115Z,2.08
2019-02-24T08:06:22.296Z,2.50
2019-02-24T08:08:59.182Z,2.22
2019-02-24T08:11:29.637Z,2.10
2019-02-24T08:14:00.074Z,1.98
2019-02-24T08:16:36.999Z,2.17
2019-02-24T08:19:07.451Z,2.00
2019-02-24T08:21:37.801Z,1.98
2019-02-24T08:24:15.221Z,2.10
2019-02-24T08:26:45.672Z,2.10
2019-02-24T08:29:16.101Z,1.90
2019-02-24T08:31:52.613Z,2.00
2019-02-24T08:34:22.989Z,2.10
2019-02-24T08:36:53.444Z,2.00
2019-02-24T08:39:29.923Z,2.20
2019-02-24T08:42:00.427Z,2.10
2019-02-24T08:44:30.821Z,1.98
2019-02-24T08:47:08.172Z,2.00
2019-02-24T08:49:38.582Z,1.87
2019-02-24T08:52:08.968Z,2.05
2019-02-24T08:54:46.005Z,1.60
2019-02-24T08:57:23.073Z,2.08
2019-02-24T08:59:59.886Z,1.70
2019-02-24T09:02:30.367Z,1.77
2019-02-24T09:05:00.976Z,1.70
2019-02-24T09:07:45.398Z,1.90
2019-02-24T09:10:15.775Z,1.82
2019-02-24T09:12:46.236Z,1.98
2019-02-24T09:15:23.263Z,1.90
2019-02-24T09:17:53.714Z,1.90
2019-02-24T09:20:24.146Z,1.47
2019-02-24T09:23:01.307Z,1.60
2019-02-24T09:25:31.751Z,1.70
2019-02-24T09:28:02.163Z,1.75
2019-02-24T09:30:41.606Z,1.60
2019-02-24T09:33:11.525Z,1.60
2019-02-24T09:35:41.985Z,1.62
2019-02-24T09:38:18.794Z,1.55
2019-02-24T09:40:49.397Z,1.50
2019-02-24T09:43:19.853Z,1.72
2019-02-24T09:45:56.716Z,1.50
2019-02-24T09:48:27.077Z,1.47
2019-02-24T09:50:57.457Z,1.45
2019-02-24T09:53:34.026Z,1.55
2019-02-24T09:56:11.137Z,1.62
2019-02-24T09:58:47.901Z,1.47
2019-02-24T10:01:18.319Z,1.60
2019-02-24T10:03:48.872Z,1.40
2019-02-24T10:06:25.916Z,1.37
2019-02-24T10:09:02.772Z,1.37
2019-02-24T10:11:39.282Z,1.20
2019-02-24T10:14:09.772Z,1.40
2019-02-24T10:16:40.116Z,1.60
2019-02-24T10:19:17.555Z,1.52
2019-02-24T10:21:47.993Z,1.50
2019-02-24T10:24:18.378Z,1.32
2019-02-24T10:26:55.021Z,1.30
2019-02-24T10:29:25.512Z,1.37
2019-02-24T10:31:56.020Z,1.50
2019-02-24T10:34:33.147Z,1.40
2019-02-24T10:37:03.606Z,1.30
2019-02-24T10:39:33.969Z,1.30
2019-02-24T10:42:10.849Z,1.30
2019-02-24T10:44:41.329Z,1.37
2019-02-24T10:47:11.789Z,1.35
2019-02-24T10:49:49.098Z,1.20
2019-02-24T10:52:19.472Z,1.30
2019-02-24T10:55:02.745Z,1.30
2019-02-24T10:57:39.928Z,1.40
2019-02-24T11:00:24.975Z,1.60
2019-02-24T11:02:55.399Z,1.27
2019-02-24T11:05:25.746Z,1.20
2019-02-24T11:08:03.175Z,1.40
2019-02-24T11:10:40.201Z,1.27
2019-02-24T11:13:16.849Z,1.17
2019-02-24T11:15:47.241Z,1.10
2019-02-24T11:18:17.700Z,1.30
2019-02-24T11:20:54.616Z,1.25
2019-02-24T11:23:24.999Z,1.37
2019-02-24T11:25:55.454Z,1.12
2019-02-24T11:28:32.990Z,1.20
2019-02-24T11:31:03.360Z,1.20
2019-02-24T11:33:34.360Z,1.37
2019-02-24T11:36:11.115Z,1.20
2019-02-24T11:38:41.482Z,1.05
2019-02-24T11:41:11.951Z,1.15
2019-02-24T11:43:48.624Z,1.37
2019-02-24T11:46:18.985Z,1.17
2019-02-24T11:48:49.364Z,1.12
2019-02-24T11:51:26.101Z,1.12
2019-02-24T11:53:56.531Z,1.02
2019-02-24T11:56:40.053Z,1.17
2019-02-24T11:59:16.730Z,1.30
2019-02-24T12:01:54.207Z,1.12
2019-02-24T12:04:24.650Z,1.10
2019-02-24T12:06:54.984Z,1.20
2019-02-24T12:09:32.510Z,1.00
2019-02-24T12:12:09.484Z,1.20
2019-02-24T12:14:47.483Z,1.07
2019-02-24T12:17:17.855Z,1.12
2019-02-24T12:19:48.238Z,1.07
2019-02-24T12:22:24.800Z,1.10
2019-02-24T12:24:55.280Z,1.05
2019-02-24T12:27:25.657Z,1.10
2019-02-24T12:30:02.424Z,1.20
2019-02-24T12:32:32.872Z,1.27
2019-02-24T12:35:03.331Z,1.20
2019-02-24T12:37:40.099Z,1.00
2019-02-24T12:40:11.893Z,1.20
2019-02-24T12:42:42.329Z,0.98
2019-02-24T12:45:19.264Z,1.00
2019-02-24T12:47:49.672Z,0.90
2019-02-24T12:50:20.446Z,0.90
2019-02-24T12:52:57.626Z,1.05
2019-02-24T12:55:34.944Z,1.20
2019-02-24T12:58:18.733Z,1.20
2019-02-24T13:00:49.200Z,1.12
2019-02-24T13:03:24.005Z,1.00
2019-02-24T13:05:58.046Z,1.00
2019-02-24T13:08:28.590Z,1.00
2019-02-24T13:10:59.040Z,1.00
2019-02-24T13:13:42.540Z,1.07
2019-02-24T13:16:12.953Z,0.93
2019-02-24T13:18:43.508Z,1.00
2019-02-24T13:21:20.286Z,1.00
2019-02-24T13:23:50.741Z,1.25
2019-02-24T13:26:21.174Z,0.90
2019-02-24T13:28:58.111Z,1.00
2019-02-24T13:31:28.516Z,1.20
2019-02-24T13:33:59.030Z,1.10
2019-02-24T13:36:36.167Z,1.07
2019-02-24T13:39:07.922Z,1.20
2019-02-24T13:41:38.357Z,0.98
2019-02-24T13:44:15.134Z,0.90
2019-02-24T13:46:45.517Z,1.07
2019-02-24T13:49:15.992Z,1.20
2019-02-24T13:51:53.053Z,1.00
2019-02-24T13:54:23.407Z,1.10
2019-02-24T13:57:06.989Z,1.07
2019-02-24T13:59:44.296Z,1.00
2019-02-24T14:02:24.081Z,0.95
2019-02-24T14:04:52.994Z,0.98
2019-02-24T14:07:23.362Z,0.90
2019-02-24T14:09:59.952Z,0.85
2019-02-24T14:12:30.395Z,0.95
2019-02-24T14:15:17.123Z,1.00
2019-02-24T14:17:47.523Z,1.10
2019-02-24T14:20:20.929Z,1.00
2019-02-24T14:22:57.596Z,0.95
2019-02-24T14:25:28.163Z,1.02
2019-02-24T14:27:58.835Z,0.80
2019-02-24T14:30:37.246Z,0.90
2019-02-24T14:33:07.792Z,1.00
2019-02-24T14:35:38.265Z,1.00
2019-02-24T14:38:15.476Z,1.10
2019-02-24T14:40:46.059Z,0.90
2019-02-24T14:43:16.518Z,0.82
2019-02-24T14:45:53.890Z,1.12
2019-02-24T14:48:24.702Z,0.95
2019-02-24T14:50:55.201Z,0.90
2019-02-24T14:53:32.726Z,1.10
2019-02-24T14:56:03.103Z,0.93
2019-02-24T14:58:47.532Z,0.90
2019-02-24T15:01:24.440Z,1.02
2019-02-24T15:04:01.095Z,0.90
2019-02-24T15:06:31.566Z,0.85
2019-02-24T15:09:02.007Z,0.90
2019-02-24T15:11:38.828Z,0.80
2019-02-24T15:14:09.229Z,1.00
2019-02-24T15:16:52.518Z,0.90
2019-02-24T15:19:22.937Z,0.80
2019-02-24T15:21:53.288Z,1.10
2019-02-24T15:24:30.721Z,1.15
2019-02-24T15:27:01.238Z,1.00
2019-02-24T15:29:31.674Z,0.93
2019-02-24T15:32:09.175Z,0.80
2019-02-24T15:34:39.545Z,0.80
2019-02-24T15:37:10.041Z,1.05
2019-02-24T15:39:47.141Z,0.75
2019-02-24T15:42:17.538Z,0.75
2019-02-24T15:44:47.929Z,1.02
2019-02-24T15:47:24.545Z,1.00
2019-02-24T15:49:54.902Z,0.80
2019-02-24T15:52:25.304Z,1.00
2019-02-24T15:55:02.186Z,0.90
2019-02-24T15:57:39.570Z,1.05
2019-02-24T16:00:30.615Z,0.88
2019-02-24T16:03:01.995Z,0.90
2019-02-24T16:05:32.583Z,1.00
2019-02-24T16:08:10.033Z,0.80
2019-02-24T16:10:40.587Z,0.90
2019-02-24T16:13:17.045Z,0.98
2019-02-24T16:15:49.474Z,1.07
2019-02-24T16:18:26.545Z,1.00
2019-02-24T16:21:03.777Z,0.80
2019-02-24T16:23:34.153Z,0.80
2019-02-24T16:26:04.640Z,1.00
2019-02-24T16:28:41.079Z,1.00
2019-02-24T16:31:11.740Z,0.90
2019-02-24T16:33:42.229Z,0.80
2019-02-24T16:36:18.724Z,0.80
2019-02-24T16:38:49.101Z,0.90
2019-02-24T16:41:19.454Z,0.90
2019-02-24T16:43:57.105Z,1.00
2019-02-24T16:46:27.484Z,1.05
2019-02-24T16:48:57.967Z,1.00
2019-02-24T16:51:35.492Z,0.90
2019-02-24T16:54:05.837Z,1.00
2019-02-24T16:56:36.228Z,0.82
2019-02-24T16:59:13.044Z,1.00
2019-02-24T17:01:49.862Z,0.88
2019-02-24T17:04:26.380Z,0.90
2019-02-24T17:06:56.849Z,0.90
2019-02-24T17:09:27.208Z,1.07
2019-02-24T17:12:04.269Z,0.90
2019-02-24T17:14:34.720Z,0.98
2019-02-24T17:17:05.169Z,1.20
2019-02-24T17:19:48.482Z,1.00
2019-02-24T17:22:18.871Z,1.10
2019-02-24T17:24:49.320Z,0.93
2019-02-24T17:27:26.216Z,0.90
2019-02-24T17:29:56.693Z,1.00
2019-02-24T17:32:27.147Z,1.00
2019-02-24T17:35:04.526Z,1.10
2019-02-24T17:37:35.034Z,0.93
2019-02-24T17:40:08.030Z,0.90
2019-02-24T17:42:44.770Z,0.93
2019-02-24T17:45:15.467Z,0.80
2019-02-24T17:47:46.090Z,0.90
2019-02-24T17:50:24.131Z,0.88
2019-02-24T17:52:54.663Z,1.05
2019-02-24T17:55:25.022Z,1.07
2019-02-24T17:58:02.377Z,1.00
2019-02-24T18:00:44.010Z,1.17
2019-02-24T18:03:27.318Z,0.95
2019-02-24T18:05:57.674Z,0.80
2019-02-24T18:08:28.498Z,0.85
2019-02-24T18:11:05.454Z,1.00
2019-02-24T18:13:35.848Z,1.10
2019-02-24T18:16:06.409Z,1.02
2019-02-24T18:18:43.354Z,0.80
2019-02-24T18:21:20.052Z,0.90
2019-02-24T18:23:57.556Z,0.90
2019-02-24T18:26:28.029Z,1.00
2019-02-24T18:28:58.408Z,0.93
2019-02-24T18:31:35.014Z,0.90
2019-02-24T18:34:05.425Z,1.10
2019-02-24T18:36:49.151Z,1.20
2019-02-24T18:39:19.509Z,0.90
2019-02-24T18:41:49.976Z,0.90
2019-02-24T18:44:26.915Z,0.98
2019-02-24T18:46:57.379Z,0.80
2019-02-24T18:49:27.845Z,1.00
2019-02-24T18:52:05.348Z,1.00
2019-02-24T18:54:35.746Z,1.10
2019-02-24T18:57:06.219Z,0.80
2019-02-24T18:59:43.232Z,0.82
2019-02-24T19:02:20.047Z,1.00
2019-02-24T19:04:56.846Z,1.00
2019-02-24T19:07:27.374Z,1.00
2019-02-24T19:09:57.837Z,1.10
2019-02-24T19:12:34.314Z,1.17
2019-02-24T19:15:04.858Z,0.90
2019-02-24T19:17:35.349Z,0.88
2019-02-24T19:20:14.498Z,1.00
2019-02-24T19:22:51.829Z,1.10
2019-02-24T19:25:30.013Z,1.00
2019-02-24T19:28:00.346Z,0.90
2019-02-24T19:30:30.770Z,1.00
2019-02-24T19:33:07.315Z,1.07
2019-02-24T19:35:37.731Z,1.20
2019-02-24T19:38:08.085Z,0.90
2019-02-24T19:40:44.932Z,0.93
2019-02-24T19:43:15.384Z,0.90
2019-02-24T19:45:45.825Z,1.00
2019-02-24T19:48:22.676Z,0.80
2019-02-24T19:50:53.172Z,1.00
2019-02-24T19:53:23.561Z,0.80
2019-02-24T19:56:00.897Z,1.07
2019-02-24T19:58:31.370Z,0.90
2019-02-24T20:01:14.619Z,0.88
2019-02-24T20:03:51.371Z,0.80
2019-02-24T20:06:27.809Z,0.85
2019-02-24T20:08:58.289Z,0.90
2019-02-24T20:11:28.657Z,1.00
2019-02-24T20:14:05.280Z,0.80
2019-02-24T20:16:35.757Z,0.98
2019-02-24T20:19:06.081Z,0.80
2019-02-24T20:21:42.937Z,1.00
2019-02-24T20:24:19.740Z,0.75
2019-02-24T20:26:56.848Z,0.90
2019-02-24T20:29:27.203Z,0.90
2019-02-24T20:31:57.646Z,0.90
2019-02-24T20:34:34.640Z,0.90
2019-02-24T20:37:05.042Z,1.00
2019-02-24T20:39:35.533Z,0.88
2019-02-24T20:42:12.749Z,0.85
2019-02-24T20:44:43.128Z,1.00
2019-02-24T20:47:13.466Z,0.80
2019-02-24T20:49:50.645Z,0.80
2019-02-24T20:52:20.984Z,0.90
2019-02-24T20:54:51.467Z,0.90
2019-02-24T20:57:28.985Z,0.82
2019-02-24T20:59:59.354Z,0.90
2019-02-24T21:02:43.284Z,0.90
2019-02-24T21:05:20.420Z,1.27
2019-02-24T21:07:57.745Z,0.80
2019-02-24T21:10:28.128Z,0.90
2019-02-24T21:12:58.528Z,1.00
2019-02-24T21:15:35.154Z,0.88
2019-02-24T21:18:05.796Z,0.95
2019-02-24T21:20:36.251Z,0.78
2019-02-24T21:23:13.917Z,1.00
2019-02-24T21:25:51.218Z,1.00
2019-02-24T21:28:27.701Z,0.80
2019-02-24T21:30:58.117Z,0.93
2019-02-24T21:33:28.612Z,0.90
2019-02-24T21:36:05.541Z,0.90
2019-02-24T21:38:36.007Z,0.95
2019-02-24T21:41:06.496Z,0.85
2019-02-24T21:43:43.537Z,0.90
2019-02-24T21:46:13.890Z,0.80
2019-02-24T21:48:44.277Z,1.05
2019-02-24T21:51:21.193Z,0.90
2019-02-24T21:53:51.561Z,0.70
2019-02-24T21:56:22.029Z,0.90
2019-02-24T21:58:58.663Z,0.98
2019-02-24T22:01:29.013Z,1.00
2019-02-24T22:04:12.788Z,0.90
2019-02-24T22:06:49.677Z,0.85
2019-02-24T22:09:26.570Z,0.90
2019-02-24T22:11:56.911Z,0.95
2019-02-24T22:14:27.411Z,1.07
2019-02-24T22:17:03.963Z,0.80
2019-02-24T22:19:34.356Z,0.80
2019-02-24T22:22:04.933Z,0.80
2019-02-24T22:24:41.714Z,0.80
2019-02-24T22:27:19.312Z,0.90
2019-02-24T22:29:56.680Z,0.98
2019-02-24T22:32:27.140Z,1.20
2019-02-24T22:34:57.471Z,0.80
2019-02-24T22:37:35.055Z,0.90
2019-02-24T22:40:07.568Z,0.93
2019-02-24T22:42:37.931Z,0.90
2019-02-24T22:45:17.462Z,0.85
2019-02-24T22:47:48.056Z,1.00
2019-02-24T22:50:18.808Z,0.80
2019-02-24T22:52:56.038Z,0.90
2019-02-24T22:55:26.513Z,0.93
2019-02-24T22:57:56.875Z,0.90
2019-02-24T23:01:01.123Z,0.78
2019-02-24T23:03:40.160Z,0.80
2019-02-24T23:06:23.208Z,0.70
2019-02-24T23:08:53.671Z,0.80
2019-02-24T23:11:24.037Z,0.90
2019-02-24T23:14:00.661Z,0.75
2019-02-24T23:16:31.047Z,0.90
2019-02-24T23:19:01.503Z,0.80
2019-02-24T23:21:38.395Z,0.93
2019-02-24T23:24:08.765Z,0.85
2019-02-24T23:26:39.189Z,0.80
2019-02-24T23:29:22.878Z,0.80
2019-02-24T23:31:53.295Z,0.90
2019-02-24T23:34:23.677Z,0.80
2019-02-24T23:37:00.624Z,1.00
2019-02-24T23:39:31.002Z,0.80
2019-02-24T23:42:01.373Z,0.90
2019-02-24T23:44:38.763Z,0.82
2019-02-24T23:47:09.215Z,0.90
2019-02-24T23:49:39.568Z,0.90
2019-02-24T23:52:16.953Z,0.70
2019-02-24T23:54:47.400Z,0.72
2019-02-24T23:57:19.109Z,0.90
2019-02-24T23:59:56.235Z,0.80
